createdAt,value
2022-11-16T00:01:12.115Z,15.30
2022-11-16T00:03:39.544Z,12.10
2022-11-16T00:06:08.352Z,12.88
2022-11-16T00:08:38.114Z,12.88
2022-11-16T00:11:23.218Z,20.73
2022-11-16T00:13:49.974Z,24.08
2022-11-16T00:16:18.434Z,21.92
2022-11-16T00:18:45.336Z,24.23
2022-11-16T00:21:12.134Z,21.92
2022-11-16T00:23:39.385Z,22.02
2022-11-16T00:26:08.402Z,25.70
2022-11-16T00:28:36.006Z,23.13
2022-11-16T00:31:04.722Z,24.98
2022-11-16T00:33:31.999Z,21.48
2022-11-16T00:36:01.528Z,21.25
2022-11-16T00:38:28.802Z,21.13
2022-11-16T00:40:55.564Z,22.83
2022-11-16T00:43:22.744Z,23.38
2022-11-16T00:45:49.691Z,24.67
2022-11-16T00:48:16.819Z,22.63
2022-11-16T00:50:45.660Z,25.15
2022-11-16T00:53:14.387Z,28.10
2022-11-16T00:55:41.554Z,16.17
2022-11-16T00:58:08.343Z,18.88
2022-11-16T01:00:35.461Z,20.80
2022-11-16T01:03:02.291Z,27.75
2022-11-16T01:05:29.273Z,31.88
2022-11-16T01:07:57.337Z,40.40
2022-11-16T01:10:25.033Z,28.67
2022-11-16T01:12:53.195Z,43.28
2022-11-16T01:15:21.503Z,34.78
2022-11-16T01:17:48.727Z,32.20
2022-11-16T01:20:18.672Z,31.38
2022-11-16T01:22:45.896Z,31.25
2022-11-16T01:25:14.370Z,26.23
2022-11-16T01:27:42.687Z,28.63
2022-11-16T01:30:11.619Z,29.55
2022-11-16T01:32:38.693Z,30.20
2022-11-16T01:35:06.568Z,23.60
2022-11-16T01:37:33.864Z,29.77
2022-11-16T01:40:00.657Z,31.52
2022-11-16T01:42:29.693Z,27.63
2022-11-16T01:45:01.173Z,32.85
2022-11-16T01:50:02.396Z,25.40
2022-11-16T01:52:33.918Z,27.10
2022-11-16T01:55:01.842Z,27.13
2022-11-16T01:57:34.189Z,32.10
2022-11-16T02:00:03.888Z,20.55
2022-11-16T02:02:30.757Z,32.13
2022-11-16T02:04:59.026Z,19.10
2022-11-16T02:08:12.001Z,25.98
2022-11-16T02:11:01.686Z,23.67
2022-11-16T02:13:51.672Z,24.95
2022-11-16T02:16:51.801Z,24.73
2022-11-16T02:19:37.115Z,19.20
2022-11-16T02:22:18.386Z,19.38
2022-11-16T02:24:49.899Z,21.17
2022-11-16T02:27:43.933Z,19.17
2022-11-16T02:30:10.878Z,25.73
2022-11-16T02:32:52.549Z,28.55
2022-11-16T02:35:24.025Z,18.52
2022-11-16T02:40:26.651Z,16.05
2022-11-16T02:42:59.725Z,21.05
2022-11-16T02:45:32.603Z,17.92
2022-11-16T02:48:05.989Z,23.48
2022-11-16T02:50:34.108Z,15.93
2022-11-16T02:53:00.933Z,17.52
2022-11-16T02:55:32.527Z,23.15
2022-11-16T02:58:05.790Z,13.88
2022-11-16T03:00:48.591Z,14.05
2022-11-16T03:03:50.685Z,17.33
2022-11-16T03:06:23.676Z,13.63
2022-11-16T03:09:11.281Z,18.15
2022-11-16T03:11:59.603Z,25.48
2022-11-16T03:14:34.367Z,27.20
2022-11-16T03:17:03.702Z,17.95
2022-11-16T03:19:45.558Z,17.80
2022-11-16T03:22:37.071Z,21.20
2022-11-16T03:25:05.060Z,19.30
2022-11-16T03:27:39.402Z,23.55
2022-11-16T03:30:10.021Z,41.08
2022-11-16T03:33:16.587Z,13.50
2022-11-16T03:36:10.434Z,17.90
2022-11-16T03:38:40.956Z,22.30
2022-11-16T03:41:10.462Z,18.23
2022-11-16T03:43:39.409Z,18.92
2022-11-16T03:46:06.649Z,112.95
2022-11-16T03:48:38.574Z,103.72
2022-11-16T03:51:08.309Z,37.38
2022-11-16T03:53:35.802Z,11.52
2022-11-16T03:56:02.628Z,14.50
2022-11-16T03:58:29.424Z,22.58
2022-11-16T04:00:56.195Z,26.63
2022-11-16T04:03:22.980Z,19.88
2022-11-16T04:06:08.759Z,20.27
2022-11-16T04:08:54.033Z,33.60
2022-11-16T04:11:41.544Z,26.85
2022-11-16T04:14:33.393Z,15.45
2022-11-16T04:17:18.661Z,12.40
2022-11-16T04:20:04.010Z,14.93
2022-11-16T04:23:17.695Z,22.50
2022-11-16T04:25:46.675Z,27.77
2022-11-16T04:28:14.656Z,24.65
2022-11-16T04:31:11.928Z,37.17
2022-11-16T04:33:57.744Z,18.15
2022-11-16T04:36:42.905Z,19.77
2022-11-16T04:39:09.729Z,30.05
2022-11-16T04:41:55.896Z,26.50
2022-11-16T04:44:27.304Z,37.13
2022-11-16T04:47:08.453Z,40.47
2022-11-16T04:49:35.221Z,40.45
2022-11-16T04:52:01.950Z,55.17
2022-11-16T04:54:28.680Z,40.58
2022-11-16T04:56:55.449Z,45.53
2022-11-16T04:59:22.301Z,38.20
2022-11-16T05:02:07.630Z,32.72
2022-11-16T05:04:35.617Z,40.08
2022-11-16T05:07:02.402Z,48.35
2022-11-16T05:09:29.166Z,47.28
2022-11-16T05:11:55.894Z,45.03
2022-11-16T05:14:22.670Z,51.22
2022-11-16T05:16:49.434Z,66.30
2022-11-16T05:19:34.535Z,59.88
2022-11-16T05:22:01.294Z,35.15
2022-11-16T05:24:33.853Z,46.15
2022-11-16T05:27:02.481Z,41.20
2022-11-16T05:29:29.232Z,38.50
2022-11-16T05:31:56.026Z,40.95
2022-11-16T05:34:22.807Z,50.78
2022-11-16T05:36:49.503Z,46.63
2022-11-16T05:39:16.540Z,51.28
2022-11-16T05:41:43.295Z,53.90
2022-11-16T05:44:10.166Z,50.58
2022-11-16T05:46:37.108Z,42.70
2022-11-16T05:49:04.322Z,43.42
2022-11-16T05:51:31.014Z,43.67
2022-11-16T05:53:57.825Z,42.53
2022-11-16T05:56:24.619Z,34.05
2022-11-16T05:58:51.478Z,53.15
2022-11-16T06:01:18.231Z,32.78
2022-11-16T06:03:45.153Z,31.55
2022-11-16T06:06:11.960Z,31.13
2022-11-16T06:08:39.097Z,45.05
2022-11-16T06:11:08.140Z,39.75
2022-11-16T06:13:35.054Z,43.45
2022-11-16T06:16:03.097Z,73.65
2022-11-16T06:18:30.411Z,44.95
2022-11-16T06:20:57.319Z,43.70
2022-11-16T06:23:24.206Z,83.28
2022-11-16T06:25:57.351Z,62.33
2022-11-16T06:28:24.413Z,48.25
2022-11-16T06:30:51.387Z,77.88
2022-11-16T06:33:18.498Z,52.65
2022-11-16T06:35:45.804Z,122.40
2022-11-16T06:38:18.478Z,112.25
2022-11-16T06:40:52.715Z,49.88
2022-11-16T06:43:20.302Z,46.60
2022-11-16T06:45:51.082Z,34.33
2022-11-16T06:48:19.333Z,44.60
2022-11-16T06:50:48.756Z,49.30
2022-11-16T06:53:16.053Z,45.50
2022-11-16T06:55:42.990Z,52.92
2022-11-16T06:58:10.033Z,70.07
2022-11-16T07:00:36.801Z,105.07
2022-11-16T07:03:04.156Z,91.40
2022-11-16T07:05:31.759Z,86.13
2022-11-16T07:07:58.534Z,36.75
2022-11-16T07:10:25.696Z,68.70
2022-11-16T07:12:52.490Z,44.13
2022-11-16T07:15:19.730Z,43.97
2022-11-16T07:17:46.608Z,52.42
2022-11-16T07:20:13.653Z,49.92
2022-11-16T07:22:40.636Z,42.50
2022-11-16T07:25:08.196Z,77.95
2022-11-16T07:27:34.979Z,37.95
2022-11-16T07:30:02.369Z,39.03
2022-11-16T07:32:31.166Z,36.83
2022-11-16T07:34:59.360Z,34.83
2022-11-16T07:37:26.615Z,52.25
2022-11-16T07:39:53.362Z,46.25
2022-11-16T07:42:20.212Z,41.30
2022-11-16T07:44:47.005Z,45.33
2022-11-16T07:47:13.741Z,42.40
2022-11-16T07:49:40.557Z,40.70
2022-11-16T07:52:10.899Z,40.28
2022-11-16T07:54:37.777Z,33.90
2022-11-16T07:57:04.532Z,36.00
2022-11-16T07:59:31.339Z,33.10
2022-11-16T08:01:59.436Z,34.95
2022-11-16T08:04:26.343Z,34.90
2022-11-16T08:06:53.227Z,261.02
2022-11-16T08:09:20.159Z,90.50
2022-11-16T08:11:47.315Z,32.28
2022-11-16T08:14:15.722Z,31.17
2022-11-16T08:16:42.502Z,34.30
2022-11-16T08:19:10.403Z,39.00
2022-11-16T08:21:37.235Z,35.88
2022-11-16T08:24:04.216Z,41.85
2022-11-16T08:26:31.000Z,30.75
2022-11-16T08:28:57.866Z,30.48
2022-11-16T08:31:27.662Z,26.65
2022-11-16T08:33:54.622Z,26.55
2022-11-16T08:36:21.662Z,31.10
2022-11-16T08:38:50.193Z,24.58
2022-11-16T08:41:17.984Z,14.20
2022-11-16T08:43:47.314Z,20.42
2022-11-16T08:46:14.953Z,19.25
2022-11-16T08:48:42.598Z,15.60
2022-11-16T08:51:19.312Z,17.63
2022-11-16T08:53:48.679Z,22.55
2022-11-16T08:56:17.963Z,18.33
2022-11-16T08:58:47.401Z,22.45
2022-11-16T09:01:17.332Z,21.23
2022-11-16T09:03:45.138Z,23.60
2022-11-16T09:06:12.869Z,20.35
2022-11-16T09:08:41.617Z,32.78
2022-11-16T09:11:14.134Z,26.30
2022-11-16T09:13:40.943Z,24.67
2022-11-16T09:16:08.022Z,28.17
2022-11-16T09:18:35.681Z,27.60
2022-11-16T09:21:02.891Z,24.95
2022-11-16T09:23:30.205Z,23.15
2022-11-16T09:26:01.203Z,22.33
2022-11-16T09:28:27.925Z,21.40
2022-11-16T09:30:59.199Z,27.52
2022-11-16T09:33:25.922Z,23.67
2022-11-16T09:35:52.625Z,19.88
2022-11-16T09:38:26.990Z,25.05
2022-11-16T09:41:15.149Z,22.52
2022-11-16T09:44:10.277Z,19.58
2022-11-16T09:46:45.498Z,15.13
2022-11-16T09:49:26.137Z,19.20
2022-11-16T09:51:59.689Z,16.57
2022-11-16T09:54:31.801Z,15.88
2022-11-16T09:57:03.918Z,22.23
2022-11-16T09:59:57.560Z,18.15
2022-11-16T10:02:30.221Z,13.98
2022-11-16T10:05:15.636Z,13.82
2022-11-16T10:07:44.872Z,13.05
2022-11-16T10:10:17.170Z,11.65
2022-11-16T10:12:44.023Z,16.02
2022-11-16T10:15:16.786Z,15.77
2022-11-16T10:17:58.733Z,13.93
2022-11-16T10:21:03.672Z,14.20
2022-11-16T10:23:39.576Z,12.45
2022-11-16T10:26:26.012Z,8.95
2022-11-16T10:29:10.368Z,7.80
2022-11-16T10:31:55.647Z,11.50
2022-11-16T10:34:30.244Z,5.53
2022-11-16T10:37:03.393Z,8.55
2022-11-16T10:39:32.658Z,4.68
2022-11-16T10:42:07.506Z,5.75
2022-11-16T10:44:42.115Z,7.50
2022-11-16T10:47:41.956Z,3.67
2022-11-16T10:50:37.364Z,10.85
2022-11-16T10:53:04.386Z,3.65
2022-11-16T10:55:31.312Z,11.57
2022-11-16T10:58:03.843Z,8.27
2022-11-16T11:00:46.327Z,6.82
2022-11-16T11:03:13.884Z,10.25
2022-11-16T11:05:52.567Z,22.50
2022-11-16T11:08:30.509Z,8.90
2022-11-16T11:11:22.649Z,10.05
2022-11-16T11:14:03.848Z,4.78
2022-11-16T11:16:30.714Z,10.35
2022-11-16T11:18:57.489Z,13.77
2022-11-16T11:21:27.550Z,6.65
2022-11-16T11:24:06.147Z,4.75
2022-11-16T11:26:49.783Z,9.90
2022-11-16T11:29:30.374Z,11.60
2022-11-16T11:32:22.619Z,6.37
2022-11-16T11:34:55.810Z,5.45
2022-11-16T11:37:31.730Z,7.32
2022-11-16T11:40:24.358Z,4.75
2022-11-16T11:43:00.533Z,7.57
2022-11-16T11:45:36.494Z,2.47
2022-11-16T11:48:13.444Z,11.55
2022-11-16T11:50:49.856Z,5.85
2022-11-16T11:53:41.247Z,4.05
2022-11-16T11:56:12.124Z,7.53
2022-11-16T11:58:40.563Z,6.32
2022-11-16T12:01:51.905Z,5.10
2022-11-16T12:04:34.610Z,4.90
2022-11-16T12:07:07.144Z,6.63
2022-11-16T12:09:54.200Z,5.55
2022-11-16T12:12:47.589Z,5.28
2022-11-16T12:15:29.378Z,4.78
2022-11-16T12:18:02.221Z,6.93
2022-11-16T12:21:02.857Z,5.20
2022-11-16T12:23:39.696Z,7.38
2022-11-16T12:26:28.256Z,5.43
2022-11-16T12:28:58.019Z,4.53
2022-11-16T12:31:55.150Z,3.17
2022-11-16T12:34:54.218Z,6.18
2022-11-16T12:37:49.507Z,5.35
2022-11-16T12:40:43.805Z,8.32
2022-11-16T12:43:29.116Z,8.05
2022-11-16T12:46:05.759Z,3.95
2022-11-16T12:48:41.890Z,4.20
2022-11-16T12:51:47.424Z,9.55
2022-11-16T12:54:24.605Z,9.02
2022-11-16T12:57:19.896Z,3.70
2022-11-16T12:59:58.987Z,7.53
2022-11-16T13:02:45.032Z,2.47
2022-11-16T13:05:40.293Z,9.40
2022-11-16T13:08:20.054Z,4.00
2022-11-16T13:10:51.037Z,6.47
2022-11-16T13:13:41.468Z,10.68
2022-11-16T13:16:10.119Z,10.02
2022-11-16T13:18:41.784Z,5.70
2022-11-16T13:21:37.969Z,8.40
2022-11-16T13:24:27.245Z,10.95
2022-11-16T13:26:59.251Z,6.70
2022-11-16T13:29:40.969Z,8.02
2022-11-16T13:32:17.909Z,6.68
2022-11-16T13:34:46.071Z,9.95
2022-11-16T13:37:34.663Z,7.43
2022-11-16T13:40:01.378Z,8.45
2022-11-16T13:42:30.272Z,10.55
2022-11-16T13:45:17.755Z,7.55
2022-11-16T13:47:52.969Z,7.60
2022-11-16T13:50:23.731Z,12.40
2022-11-16T13:55:44.469Z,7.65
2022-11-16T13:58:20.266Z,9.70
2022-11-16T14:01:04.435Z,8.02
2022-11-16T14:03:38.582Z,8.93
2022-11-16T14:06:23.643Z,11.43
2022-11-16T14:09:00.623Z,8.95
2022-11-16T14:11:30.249Z,7.90
2022-11-16T14:13:57.408Z,5.45
2022-11-16T14:16:24.540Z,9.70
2022-11-16T14:19:00.512Z,5.35
2022-11-16T14:21:53.104Z,5.25
2022-11-16T14:24:35.441Z,5.60
2022-11-16T14:27:02.060Z,6.15
2022-11-16T14:29:47.580Z,10.63
2022-11-16T14:32:45.345Z,7.97
2022-11-16T14:35:39.012Z,3.50
2022-11-16T14:38:26.677Z,4.65
2022-11-16T14:40:59.641Z,9.18
2022-11-16T14:43:34.417Z,7.40
2022-11-16T14:46:29.457Z,12.65
2022-11-16T14:48:59.280Z,6.55
2022-11-16T14:51:34.689Z,9.18
2022-11-16T14:54:05.284Z,6.68
2022-11-16T14:56:31.979Z,6.72
2022-11-16T14:59:00.799Z,6.53
2022-11-16T15:01:34.950Z,5.15
2022-11-16T15:04:11.354Z,10.80
2022-11-16T15:06:48.130Z,15.27
2022-11-16T15:09:22.718Z,6.65
2022-11-16T15:12:09.882Z,17.05
2022-11-16T15:14:58.063Z,6.15
2022-11-16T15:17:31.751Z,3.28
2022-11-16T15:20:15.169Z,6.47
2022-11-16T15:22:44.958Z,4.38
2022-11-16T15:25:27.103Z,6.57
2022-11-16T15:27:55.455Z,9.13
2022-11-16T15:30:25.670Z,8.02
2022-11-16T15:32:53.434Z,9.50
2022-11-16T15:35:41.083Z,4.47
2022-11-16T15:38:21.674Z,9.15
2022-11-16T15:40:53.824Z,4.93
2022-11-16T15:43:23.844Z,7.20
2022-11-16T15:45:51.751Z,9.43
2022-11-16T15:48:22.641Z,5.85
2022-11-16T15:51:04.264Z,5.90
2022-11-16T15:53:35.514Z,10.95
2022-11-16T15:56:04.037Z,9.38
2022-11-16T15:58:36.501Z,9.32
2022-11-16T16:01:03.537Z,13.18
2022-11-16T16:03:33.014Z,7.30
2022-11-16T16:06:01.098Z,9.70
2022-11-16T16:08:35.318Z,6.78
2022-11-16T16:11:15.793Z,7.88
2022-11-16T16:14:03.118Z,4.85
2022-11-16T16:16:32.362Z,11.05
2022-11-16T16:19:06.521Z,13.77
2022-11-16T16:21:45.335Z,7.80
2022-11-16T16:24:45.514Z,13.07
2022-11-16T16:27:19.511Z,18.45
2022-11-16T16:29:47.803Z,18.27
2022-11-16T16:32:19.082Z,9.45
2022-11-16T16:34:45.866Z,13.48
2022-11-16T16:37:13.020Z,9.63
2022-11-16T16:39:41.058Z,11.73
2022-11-16T16:42:13.773Z,13.40
2022-11-16T16:44:41.876Z,6.82
2022-11-16T16:47:09.563Z,10.90
2022-11-16T16:49:36.912Z,16.20
2022-11-16T16:52:05.413Z,8.38
2022-11-16T16:54:32.650Z,13.95
2022-11-16T16:57:01.533Z,10.77
2022-11-16T16:59:30.087Z,5.97
2022-11-16T17:01:58.529Z,7.57
2022-11-16T17:04:25.662Z,6.95
2022-11-16T17:06:53.544Z,11.70
2022-11-16T17:09:20.647Z,12.68
2022-11-16T17:11:47.898Z,16.40
2022-11-16T17:14:14.706Z,17.60
2022-11-16T17:16:41.433Z,13.00
2022-11-16T17:19:08.225Z,13.90
2022-11-16T17:21:34.943Z,13.30
2022-11-16T17:24:01.727Z,7.65
2022-11-16T17:26:29.674Z,10.30
2022-11-16T17:28:57.627Z,8.98
2022-11-16T17:31:25.946Z,6.78
2022-11-16T17:33:53.029Z,8.60
2022-11-16T17:36:20.567Z,13.27
2022-11-16T17:38:47.335Z,10.70
2022-11-16T17:41:19.703Z,10.40
2022-11-16T17:43:47.000Z,15.07
2022-11-16T17:46:18.911Z,7.72
2022-11-16T17:48:47.458Z,11.02
2022-11-16T17:51:19.564Z,14.02
2022-11-16T17:53:47.437Z,11.88
2022-11-16T17:56:17.388Z,11.85
2022-11-16T17:58:47.076Z,13.27
2022-11-16T18:01:14.616Z,17.17
2022-11-16T18:03:41.476Z,55.28
2022-11-16T18:06:14.178Z,93.75
2022-11-16T18:08:42.072Z,47.15
2022-11-16T18:11:18.825Z,22.48
2022-11-16T18:13:46.713Z,26.05
2022-11-16T18:16:16.588Z,74.68
2022-11-16T18:18:44.164Z,154.35
2022-11-16T18:21:15.847Z,186.32
2022-11-16T18:23:45.626Z,145.90
2022-11-16T18:26:15.659Z,113.93
2022-11-16T18:28:44.917Z,120.57
2022-11-16T18:31:14.446Z,94.47
2022-11-16T18:33:41.745Z,108.20
2022-11-16T18:36:09.762Z,108.63
2022-11-16T18:38:37.583Z,110.07
2022-11-16T18:41:06.341Z,94.05
2022-11-16T18:43:34.747Z,99.32
2022-11-16T18:46:02.074Z,90.05
2022-11-16T18:48:28.857Z,86.30
2022-11-16T18:51:03.988Z,94.13
2022-11-16T18:53:32.924Z,93.40
2022-11-16T18:55:59.951Z,77.15
2022-11-16T19:01:17.122Z,97.75
2022-11-16T19:03:44.377Z,77.60
2022-11-16T19:06:11.920Z,75.95
2022-11-16T19:08:40.323Z,61.22
2022-11-16T19:11:15.378Z,60.38
2022-11-16T19:13:43.243Z,57.25
2022-11-16T19:16:11.602Z,53.13
2022-11-16T19:18:39.091Z,47.85
2022-11-16T19:21:11.226Z,55.92
2022-11-16T19:23:45.646Z,44.92
2022-11-16T19:26:17.141Z,53.25
2022-11-16T19:31:14.998Z,45.22
2022-11-16T19:33:42.140Z,43.72
2022-11-16T19:36:14.769Z,42.60
2022-11-16T19:38:41.935Z,43.47
2022-11-16T19:41:10.771Z,56.40
2022-11-16T19:43:37.850Z,69.72
2022-11-16T19:46:08.150Z,62.72
2022-11-16T19:48:35.212Z,65.13
2022-11-16T19:51:08.017Z,48.28
2022-11-16T19:53:35.497Z,45.17
2022-11-16T19:56:03.417Z,47.85
2022-11-16T19:58:31.172Z,50.63
2022-11-16T20:01:03.456Z,48.42
2022-11-16T20:03:31.127Z,57.35
2022-11-16T20:06:12.392Z,58.28
2022-11-16T20:08:41.180Z,205.10
2022-11-16T20:11:15.114Z,57.25
2022-11-16T20:13:42.724Z,43.97
2022-11-16T20:16:11.633Z,37.88
2022-11-16T20:18:39.571Z,47.42
2022-11-16T20:21:07.562Z,53.47
2022-11-16T20:23:35.550Z,50.40
2022-11-16T20:26:07.136Z,40.08
2022-11-16T20:28:38.653Z,39.22
2022-11-16T20:31:12.271Z,40.95
2022-11-16T20:33:40.444Z,35.33
2022-11-16T20:36:10.030Z,36.28
2022-11-16T20:38:38.467Z,33.05
2022-11-16T20:41:13.693Z,42.00
2022-11-16T20:43:41.712Z,34.00
2022-11-16T20:46:11.653Z,44.47
2022-11-16T20:48:40.608Z,34.97
2022-11-16T20:51:10.146Z,36.75
2022-11-16T20:53:37.662Z,32.97
2022-11-16T20:56:07.774Z,134.68
2022-11-16T20:58:34.905Z,28.20
2022-11-16T21:01:07.439Z,28.70
2022-11-16T21:03:34.994Z,33.03
2022-11-16T21:06:02.056Z,29.45
2022-11-16T21:08:31.431Z,25.70
2022-11-16T21:10:58.505Z,26.98
2022-11-16T21:13:43.614Z,32.83
2022-11-16T21:16:12.677Z,31.02
2022-11-16T21:18:40.220Z,30.83
2022-11-16T21:21:14.983Z,35.55
2022-11-16T21:23:45.111Z,27.90
2022-11-16T21:26:13.993Z,24.67
2022-11-16T21:28:44.755Z,28.75
2022-11-16T21:31:17.737Z,30.15
2022-11-16T21:33:45.992Z,26.90
2022-11-16T21:36:17.633Z,25.90
2022-11-16T21:38:45.036Z,30.50
2022-11-16T21:41:13.716Z,29.00
2022-11-16T21:43:41.097Z,34.38
2022-11-16T21:46:11.261Z,26.30
2022-11-16T21:48:38.784Z,32.17
2022-11-16T21:51:08.469Z,46.53
2022-11-16T21:53:36.200Z,52.70
2022-11-16T21:56:04.219Z,53.45
2022-11-16T21:58:31.022Z,42.50
2022-11-16T22:01:00.279Z,73.63
2022-11-16T22:03:32.083Z,41.45
2022-11-16T22:06:20.023Z,29.80
2022-11-16T22:08:47.571Z,44.67
2022-11-16T22:11:16.173Z,41.33
2022-11-16T22:13:43.449Z,36.40
2022-11-16T22:16:13.312Z,36.05
2022-11-16T22:18:40.087Z,37.00
2022-11-16T22:21:07.610Z,37.08
2022-11-16T22:23:35.648Z,32.40
2022-11-16T22:26:06.931Z,37.90
2022-11-16T22:28:35.347Z,41.13
2022-11-16T22:31:13.601Z,40.95
2022-11-16T22:33:40.991Z,37.83
2022-11-16T22:36:10.119Z,36.53
2022-11-16T22:38:36.919Z,36.97
2022-11-16T22:41:03.916Z,58.85
2022-11-16T22:43:31.533Z,44.40
2022-11-16T22:45:59.688Z,46.22
2022-11-16T22:48:34.189Z,43.92
2022-11-16T22:51:20.856Z,43.33
2022-11-16T22:53:48.086Z,43.15
2022-11-16T22:56:14.792Z,41.20
2022-11-16T22:58:41.489Z,43.67
2022-11-16T23:01:09.352Z,45.08
2022-11-16T23:03:37.189Z,38.80
2022-11-16T23:06:05.561Z,36.42
2022-11-16T23:08:33.786Z,45.25
2022-11-16T23:11:24.463Z,49.13
2022-11-16T23:14:11.309Z,75.35
2022-11-16T23:16:39.398Z,83.47
2022-11-16T23:19:29.050Z,90.70
2022-11-16T23:22:15.275Z,84.70
2022-11-16T23:25:00.876Z,73.68
2022-11-16T23:27:33.288Z,69.63
2022-11-16T23:30:03.768Z,76.35
2022-11-16T23:32:33.563Z,79.45
2022-11-16T23:35:00.322Z,116.22
2022-11-16T23:37:27.060Z,106.07
2022-11-16T23:39:53.898Z,123.72
2022-11-16T23:42:39.195Z,115.72
2022-11-16T23:45:06.815Z,120.15
2022-11-16T23:47:33.594Z,138.75
2022-11-16T23:50:00.325Z,128.00
2022-11-16T23:52:27.433Z,149.48
2022-11-16T23:54:54.188Z,139.18
2022-11-16T23:57:20.947Z,150.10
2022-11-16T23:59:47.789Z,154.15
